Norwell, Massachusetts
Current Conditions -  °F | °C
As of 6:52 PM on Sunday 25 Jan 2015 (Local Time) from KPYM Reporting Station
Clear Clear  
Wind Chill: 20°   Ceiling: Unl
Heat Index: 29°   Visibility: 10mi
Dew Point: 11°   Wind: 9mph
Humidity: 47%   Direction: 250°WSW
Pressure: 29.88"   Gusts: NA
Location:  42.16°N, 70.79°W
Report Text: KPYM 252352Z AUTO 25008KT 10SM CLR M02/M12 A2988 RMK AO2 SLP121 T10171117 10028 21017 53054
Loading
Personal Weather Stations






























Interactive Weather Map New forecast layout! Learn more

10-Day Weather Forecast

Advertisements
Track Severe Weather on mobile